• Join FlightAware (Why Join?)
  • Login
  • US Flag 
01:57AM EDT


 

Airport Tracker/Info


-or-


 

Live Flight TrackerFlight Track Log ✈ SWA232 ✈ 28-Apr-2013 ✈ KMDW - KPHX

Flight Track Log - Related Links

Times and Time Zones

All times are in EDT time to prevent confusion due to time zone crossing. See the SWA232 flight status page for this flight to view local times or setup timezone preferences in your user account.

Time Position Orientation Groundspeed Altitude Reporting Facility
EDT Latitude Longitude Course Direction KTS MPH feet Rate Location/Type
09:54AM 41.8000 -87.8167 255° West 247 284 3,000  Level Chicago TRACON
09:55AM 41.7833 -87.9000 255° West 250 288 3,900 660 Climbing Chicago TRACON
09:56AM 41.7678 -87.9486 247° West 251 289 4,000 60 Climbing Chicago Center
09:57AM 41.7558 -88.0461 261° West 262 302 4,000 180 Level Chicago Center
09:58AM 41.7517 -88.1461 267° West 271 312 4,400 1,680 Climbing Chicago Center
09:59AM 41.7494 -88.2469 268° West 273 314 7,500 3,120 Climbing Chicago Center
10:00AM 41.7458 -88.3544 267° West 286 329 10,800 3,060 Climbing Chicago Center
10:01AM 41.7411 -88.4647 267° West 299 344 13,800 2,700 Climbing Chicago Center
10:02AM 41.7139 -88.6025 255° West 320 368 16,400 2,160 Climbing Chicago Center
10:03AM 41.6894 -88.7375 256° West 373 429 18,300 1,980 Climbing Chicago Center
10:04AM 41.6628 -88.8794 256° West 392 451 20,500 2,100 Climbing Chicago Center
10:05AM 41.6350 -89.0275 256° West 410 472 22,700 1,200 Climbing Chicago Center
10:06AM 41.6069 -89.1794 256° West 421 484 23,000 780 Climbing Chicago Center
10:07AM 41.5792 -89.3314 256° West 425 489 24,300 1,620 Climbing Chicago Center
10:08AM 41.5436 -89.5167 256° West 431 496 26,400 1,680 Climbing Chicago Center
10:09AM 41.5158 -89.6553 255° West 443 510 27,800 1,380 Climbing Chicago Center
10:10AM 41.4856 -89.8167 256° West 449 517 29,300 1,740 Climbing Chicago Center
10:11AM 41.4464 -90.0117 255° West 456 525 31,400 1,740 Climbing Chicago Center
10:12AM 41.4150 -90.1708 255° West 449 517 32,900 1,440 Climbing Chicago Center
10:13AM 41.3769 -90.3275 252° West 449 517 34,400 1,260 Climbing Chicago Center
10:14AM 41.3411 -90.4831 253° West 444 511 35,500 1,020 Climbing Chicago Center
10:15AM 41.3028 -90.6425 252° West 453 521 36,600 1,200 Climbing Chicago Center
10:16AM 41.2656 -90.7961 252° West 442 509 38,000 660 Climbing Chicago Center
10:17AM 41.2297 -90.9458 252° West 429 494 38,000  Level Chicago Center
10:18AM 41.1844 -91.1264 252° West 431 496 38,000  Level Chicago Center
10:19AM 41.1489 -91.2792 253° West 434 499 38,000  Level Chicago Center
10:20AM 41.1108 -91.4306 252° West 435 501 38,000  Level Chicago Center
10:21AM 41.0733 -91.5833 252° West 436 502 38,000  Level Chicago Center
10:22AM 41.0314 -91.7542 252° West 440 506 38,000  Level Chicago Center
10:23AM 40.9925 -91.9036 251° West 435 501 38,000  Level Chicago Center
10:24AM 40.9558 -92.0547 252° West 435 501 38,000  Level Chicago Center
10:26AM 40.9183 -92.2042 252° West 433 498 38,000  Level Chicago Center
10:27AM 40.8789 -92.3542 251° West 437 503 38,000  Level Chicago Center
10:28AM 40.8342 -92.5325 252° West 432 497 38,000  Level Chicago Center
10:29AM 40.7958 -92.6778 251° West 427 491 38,000  Level Chicago Center
10:30AM 40.7581 -92.8250 251° West 428 493 38,000  Level Chicago Center
10:30AM 40.7344 -92.9147 251° West 429 494 38,000  Level Minneapolis Center
10:31AM 40.6889 -93.0861 251° West 423 487 38,000  Level Minneapolis Center
10:32AM 40.6517 -93.2303 251° West 423 487 38,000  Level Minneapolis Center
10:33AM 40.6142 -93.3719 251° West 419 482 38,000  Level Minneapolis Center
10:34AM 40.5744 -93.5189 250° West 425 489 38,000  Level Minneapolis Center
10:35AM 40.5339 -93.6644 250° West 428 493 38,000  Level Minneapolis Center
10:36AM 40.4856 -93.8397 250° West 429 494 38,000  Level Minneapolis Center
10:37AM 40.4450 -93.9872 250° West 432 497 38,000  Level Minneapolis Center
10:39AM 40.4056 -94.1342 251° West 431 496 38,000  Level Minneapolis Center
10:40AM 40.3647 -94.2819 250° West 434 499 38,000  Level Minneapolis Center
10:41AM 40.3236 -94.4297 250° West 434 499 38,000  Level Minneapolis Center
10:42AM 40.2781 -94.5950 250° West 437 503 38,000  Level Minneapolis Center
10:43AM 40.2353 -94.7453 250° West 437 503 38,000  Level Minneapolis Center
10:44AM 40.1931 -94.8944 250° West 438 504 38,000  Level Minneapolis Center
10:45AM 40.1517 -95.0431 250° West 435 501 38,000  Level Minneapolis Center
10:46AM 40.1103 -95.1908 250° West 434 499 38,000  Level Minneapolis Center
10:47AM 40.0592 -95.3683 249° West 433 498 38,000  Level Minneapolis Center
10:48AM 40.0172 -95.5156 250° West 433 498 38,000  Level Minneapolis Center
10:49AM 39.9753 -95.6608 249° West 429 494 38,000  Level Minneapolis Center
10:50AM 39.9325 -95.8058 249° West 428 493 38,000  Level Minneapolis Center
10:51AM 39.8806 -95.9814 249° West 430 495 38,000  Level Minneapolis Center
10:52AM 39.8367 -96.1242 248° West 434 499 38,000  Level Kansas City Center
10:53AM 39.7889 -96.2875 249° West 436 502 38,000  Level Kansas City Center
10:54AM 39.7444 -96.4344 249° West 437 503 38,000  Level Kansas City Center
10:55AM 39.7003 -96.5831 249° West 441 507 38,000  Level Kansas City Center
10:56AM 39.6550 -96.7311 248° West 440 506 38,000  Level Kansas City Center
10:57AM 39.6111 -96.8769 249° West 438 504 38,000  Level Kansas City Center
10:58AM 39.5667 -97.0222 248° West 436 502 38,000  Level Kansas City Center
10:59AM 39.5117 -97.2022 248° West 437 503 38,000  Level Kansas City Center
11:00AM 39.4678 -97.3397 248° West 435 501 38,000  Level Kansas City Center
11:01AM 39.4253 -97.4797 249° West 437 503 38,000  Level Kansas City Center
11:02AM 39.3764 -97.6378 248° West 437 503 38,000  Level Kansas City Center
11:03AM 39.3311 -97.7828 248° West 435 501 38,000  Level Kansas City Center
11:04AM 39.2792 -97.9419 247° West 436 502 38,000  Level Kansas City Center
11:05AM 39.2361 -98.0797 248° West 435 501 38,000  Level Kansas City Center
11:07AM 39.1853 -98.2406 248° West 441 507 38,000  Level Kansas City Center
11:08AM 39.1389 -98.3853 248° West 441 507 38,000  Level Kansas City Center
11:09AM 39.0917 -98.5303 247° West 441 507 38,000  Level Kansas City Center
11:10AM 39.0447 -98.6764 248° West 443 510 38,000  Level Kansas City Center
11:11AM 38.9956 -98.8275 247° West 446 513 38,000  Level Kansas City Center
11:11AM 38.9542 -98.9542 247° West 448 516 38,000  Level Denver Center
11:12AM 38.9103 -99.0875 247° West 452 520 38,000  Level Denver Center
11:13AM 38.8547 -99.2522 247° West 452 520 38,000  Level Denver Center
11:14AM 38.8403 -99.2978 248° West 458 527 38,000  Level Kansas City Center
11:15AM 38.7914 -99.4433 247° West 451 519 38,000  Level Kansas City Center
11:15AM 38.7539 -99.5575 247° West 449 517 38,000  Level Denver Center
11:16AM 38.7061 -99.6978 246° West 451 519 38,000  Level Denver Center
11:18AM 38.6511 -99.8606 247° West 449 517 38,000  Level Denver Center
11:19AM 38.6039 -99.9997 247° West 448 516 38,000  Level Denver Center
11:20AM 38.5475 -100.1586 246° West 443 510 38,000  Level Denver Center
11:21AM 38.5000 -100.3000 247° West 449 517 38,000  Level Denver Center
11:22AM 38.4444 -100.4631 247° West 451 519 38,000  Level Denver Center
11:23AM 38.3961 -100.6006 246° West 448 516 38,000  Level Denver Center
11:24AM 38.3397 -100.7633 246° West 450 518 38,000  Level Denver Center
11:25AM 38.2903 -100.9017 246° West 451 519 38,000  Level Denver Center
11:26AM 38.2331 -101.0625 246° West 450 518 38,000  Level Denver Center
11:27AM 38.1850 -101.2008 246° West 450 518 38,000  Level Denver Center
11:28AM 38.1267 -101.3619 245° Southwest 452 520 38,000  Level Denver Center
11:29AM 38.0778 -101.4994 246° West 450 518 38,000  Level Denver Center
11:30AM 38.0367 -101.6131 245° Southwest 447 514 38,000  Level Denver Center
11:31AM 37.9725 -101.7947 246° West 444 511 38,000  Level Denver Center
11:32AM 37.9300 -101.9322 249° West 441 507 38,000  Level Denver Center
11:33AM 37.8789 -102.0922 248° West 440 506 38,000  Level Denver Center
11:34AM 37.8436 -102.2069 249° West 440 506 38,000  Level Denver Center
11:35AM 37.7931 -102.3667 248° West 439 505 38,000  Level Denver Center
11:36AM 37.7408 -102.5275 248° West 444 511 38,000  Level Denver Center
11:37AM 37.6903 -102.6889 248° West 444 511 38,000  Level Denver Center
11:38AM 37.6456 -102.8253 248° West 440 506 38,000  Level Denver Center
11:39AM 37.5931 -102.9858 248° West 442 509 38,000  Level Denver Center
11:40AM 37.5486 -103.1244 248° West 445 512 38,000  Level Denver Center
11:41AM 37.5033 -103.2611 247° West 441 507 38,000  Level Denver Center
11:42AM 37.4431 -103.4431 247° West 440 506 38,000  Level Denver Center
11:44AM 37.3911 -103.6019 248° West 438 504 38,000  Level Denver Center
11:45AM 37.3453 -103.7383 247° West 439 505 38,000  Level Denver Center
11:46AM 37.2992 -103.8750 247° West 439 505 38,000  Level Denver Center
11:47AM 37.2453 -104.0350 247° West 440 506 38,000  Level Denver Center
11:48AM 37.1983 -104.1725 247° West 442 509 38,000  Level Denver Center
11:49AM 37.1444 -104.3319 247° West 444 511 38,000  Level Denver Center
11:50AM 37.0978 -104.4678 247° West 442 509 38,000  Level Denver Center
11:51AM 37.0436 -104.6267 247° West 443 510 38,000  Level Denver Center
11:52AM 36.9972 -104.7611 247° West 441 507 38,000  Level Denver Center
11:53AM 36.9528 -104.8903 247° West 441 507 38,000  Level Denver Center
11:54AM 36.8942 -105.0558 246° West 437 503 38,000  Level Denver Center
11:54AM 36.8647 -105.1372 246° West 437 503 38,000  Level Albuquerque Center
11:56AM 36.8189 -105.2700 247° West 436 502 38,000  Level Albuquerque Center
11:57AM 36.7653 -105.4233 246° West 433 498 38,000  Level Albuquerque Center
11:57AM 36.7506 -105.4694 248° West 432 497 38,000  Level Denver Center
11:58AM 36.6931 -105.6275 246° West 436 502 38,000  Level Denver Center
11:59AM 36.6456 -105.7564 245° Southwest 437 503 38,000  Level Denver Center
12:00PM 36.6183 -105.8239 243° Southwest 435 501 38,000  Level Albuquerque Center
12:01PM 36.5664 -105.9853 248° West 448 516 38,000  Level Albuquerque Center
12:02PM 36.5103 -106.1397 246° West 441 507 38,000  Level Albuquerque Center
12:03PM 36.4631 -106.2736 246° West 441 507 38,000  Level Albuquerque Center
12:04PM 36.4050 -106.4267 245° Southwest 439 505 38,000  Level Albuquerque Center
12:05PM 36.3564 -106.5583 245° Southwest 438 504 38,000  Level Albuquerque Center
12:06PM 36.3008 -106.7133 246° West 439 505 38,000  Level Albuquerque Center
12:07PM 36.2522 -106.8447 245° Southwest 439 505 38,000  Level Albuquerque Center
12:08PM 36.1944 -106.9983 245° Southwest 438 504 38,000  Level Albuquerque Center
12:09PM 36.1464 -107.1258 245° Southwest 441 507 38,000  Level Albuquerque Center
12:10PM 36.0875 -107.2853 245° Southwest 443 510 38,000  Level Albuquerque Center
12:11PM 36.0381 -107.4175 245° Southwest 442 509 38,000  Level Albuquerque Center
12:12PM 35.9881 -107.5506 245° Southwest 444 511 38,000  Level Albuquerque Center
12:13PM 35.9292 -107.7064 245° Southwest 446 513 38,000  Level Albuquerque Center
12:14PM 35.8789 -107.8372 245° Southwest 443 510 38,000  Level Albuquerque Center
12:15PM 35.8067 -107.9836 239° Southwest 446 513 38,000  Level Albuquerque Center
12:16PM 35.7386 -108.1061 236° Southwest 449 517 38,000  Level Albuquerque Center
12:17PM 35.6600 -108.2472 236° Southwest 447 514 38,000  Level Albuquerque Center
12:18PM 35.5917 -108.3686 235° Southwest 447 514 38,000  Level Albuquerque Center
12:19PM 35.5128 -108.5111 236° Southwest 448 516 38,000  Level Albuquerque Center
12:20PM 35.4442 -108.6344 236° Southwest 452 520 38,000  Level Albuquerque Center
12:21PM 35.3744 -108.7561 235° Southwest 453 521 38,000  Level Albuquerque Center
12:22PM 35.2939 -108.8986 235° Southwest 453 521 38,000  Level Albuquerque Center
12:23PM 35.2244 -109.0214 235° Southwest 456 525 38,000  Level Albuquerque Center
12:24PM 35.1422 -109.1658 235° Southwest 460 529 38,000  Level Albuquerque Center
12:25PM 35.0711 -109.2897 235° Southwest 463 533 38,000  Level Albuquerque Center
12:27PM 34.9889 -109.4339 235° Southwest 462 532 38,000 -240 Level Albuquerque Center
12:28PM 34.9175 -109.5503 233° Southwest 454 522 37,600 -780 Descending Albuquerque Center
12:29PM 34.8344 -109.6956 235° Southwest 460 529 36,500 -1,320 Descending Albuquerque Center
12:30PM 34.7494 -109.8028 226° Southwest 461 531 34,900 -2,100 Descending Albuquerque Center
12:31PM 34.6825 -109.9253 236° Southwest 459 528 32,200 -1,440 Descending Albuquerque Center
12:32PM 34.6244 -110.0822 246° West 457 526 32,000 -120 Descending Albuquerque Center
12:33PM 34.5772 -110.2211 248° West 459 528 32,000  Level Albuquerque Center
12:34PM 34.5172 -110.3694 244° Southwest 440 506 32,000 -60 Level Albuquerque Center
12:35PM 34.4653 -110.5161 247° West 445 512 31,900 -1,260 Descending Albuquerque Center
12:36PM 34.4142 -110.6503 245° Southwest 442 509 29,500 -2,220 Descending Albuquerque Center
12:37PM 34.3597 -110.7786 243° Southwest 433 498 27,400 -2,040 Descending Albuquerque Center
12:38PM 34.2856 -110.8856 230° Southwest 419 482 25,400 -1,860 Descending Albuquerque Center
12:39PM 34.2086 -110.9847 227° Southwest 407 468 23,600 -1,980 Descending Albuquerque Center
12:40PM 34.1347 -111.0800 227° Southwest 397 457 21,400 -2,220 Descending Albuquerque Center
12:41PM 34.0489 -111.1894 227° Southwest 380 437 19,100 -2,040 Descending Albuquerque Center
12:42PM 33.9792 -111.2794 227° Southwest 370 426 17,200 -1,800 Descending Albuquerque Center
12:43PM 33.9106 -111.3692 227° Southwest 363 418 15,400 -1,380 Descending Albuquerque Center
12:44PM 33.8531 -111.4592 232° Southwest 338 389 14,400 -1,260 Descending Albuquerque Center
12:45PM 33.8050 -111.5514 238° Southwest 324 373 12,800 -1,560 Descending Albuquerque Center
12:46PM 33.7572 -111.6408 237° Southwest 317 365 11,200 -1,380 Descending Albuquerque Center
12:47PM 33.7100 -111.7292 237° Southwest 313 360 10,000 -660 Descending Albuquerque Center
12:48PM 33.6642 -111.8125 237° Southwest 301 346 9,900 -540 Descending Albuquerque Center
12:49PM 33.6114 -111.9072 236° Southwest 284 327 9,000 -720 Descending Albuquerque Center
12:50PM 33.5744 -111.9783 238° Southwest 255 293 8,500 -840 Descending Albuquerque Center
12:51PM 33.5375 -112.0489 238° Southwest 250 288 7,300 -1,140 Descending Albuquerque Center
12:52PM 33.5250 -112.1269 259° West 248 285 6,200 -1,020 Descending Albuquerque Center
12:53PM 33.5000 -112.1839 242° Southwest 206 237 5,300 -1,140 Descending Albuquerque Center
12:54PM 33.4550 -112.1547 152° Southeast 183 211 3,900 -1,500 Descending Albuquerque Center
12:55PM 33.4408 -112.0903 105° East 174 200 2,300 -1,260 Descending Albuquerque Center
12:56PM 33.4414 -112.0394 89° East 156 180 1,400 -600 Descending Albuquerque Center
12:58PM 33.4414 -111.9936 90° East 149 171 1,100 -300 Descending Albuquerque Center